Αναφορές METAR Αεροδρομίων

 

LGTS - THESSALONIKI - GREECE
Ενημερώθηκε: 25/02/2018 16:50
Ασθενής βροχή, Σχεδόν νεφελώδης
Ασθενής βροχή, Σχεδόν νεφελώδης
 Ανεμος από ΔΒΔ
Ανεμος: ΔΒΔ 17 km/h
Θερμοκρασία: 5°C
Wind Chill: 2°C
Σημ. Δρόσου: 4°C
Υγρασία: 93%
Βαρόμετρο: 1010 hPa
Περίληψη: Ασθενής βροχή
Clouds: Σχεδόν νεφελώδης
Visibility: 2 km
Cloud details: Μερικώς νεφελώδης 152 m
Σχεδόν νεφελώδης 549 m
2018/02/25 14:50 LGTS 251450Z 29009KT 2000 -RA SCT005 BKN018 05/04 Q1010 NOSIG
LGLR - LARTISA - GREECE
Ενημερώθηκε: 25/02/2018 16:50
Ασθενής βροχή, Συννεφιά
Ασθενής βροχή, Συννεφιά
 Ανεμος από Α
Ανεμος: Α 22 km/h
Θερμοκρασία: 7°C
Wind Chill: 4°C
Σημ. Δρόσου: 5°C
Υγρασία: 87%
Βαρόμετρο: 1008 hPa
Περίληψη: Ασθενής βροχή
Clouds: Συννεφιά
Visibility: 8 km
Cloud details: Μερικώς νεφελώδης 244 m
Σχεδόν νεφελώδης 610 m
Συννεφιά 2134 m
2018/02/25 14:50 LGLR 251450Z 08012KT 8000 -RA SCT008 BKN020 OVC070 07/05 Q1008 BLU
 
LGKZ - KOZANI - GREECE
Ενημερώθηκε: 25/02/2018 13:50
NOT Current
Heavy drizzle, Mist, Συννεφιά
Heavy drizzle, Mist, Συννεφιά
 Ανεμος από ΒΔ
Ανεμος: ΒΔ 13 km/h
Θερμοκρασία: 1°C
Wind Chill: -3°C
Σημ. Δρόσου: 0°C
Υγρασία: 93%
Βαρόμετρο: 1008 hPa
Περίληψη: Heavy drizzle, Mist
Clouds: Συννεφιά
Visibility: 3 km
Cloud details: Μερικώς νεφελώδης 183 m
Σχεδόν νεφελώδης 549 m
Συννεφιά 2134 m
2018/02/25 11:50 LGKZ 251150Z 32007KT 3000 +DZ BR SCT006 BKN018 OVC070 01/00 Q1008
LGKV - KAVALA - GREECE
Ενημερώθηκε: 25/02/2018 16:50
Συννεφιά
Συννεφιά
 Ανεμος από ΑΒΑ
Ανεμος: ΑΒΑ 22 km/h
Θερμοκρασία: 5°C
Wind Chill: 1°C
Σημ. Δρόσου: 1°C
Υγρασία: 76%
Βαρόμετρο: 1012 hPa
Clouds: Συννεφιά
Visibility: 10 km
Cloud details: Αραιές Νεφώσεις 457 m
Μερικώς νεφελώδης 762 m
Συννεφιά 2134 m
2018/02/25 14:50 LGKV 251450Z 06012KT 9999 FEW015 SCT025 OVC070 05/01 Q1012
 
LGIO - IOANNINA - GREECE
Ενημερώθηκε: 25/02/2018 13:50
NOT Current
Ασθενής βροχή, Συννεφιά
Ασθενής βροχή, Συννεφιά
 Ανεμος από varies
Ανεμος: varies 0 km/h
Θερμοκρασία: 8°C
Σημ. Δρόσου: 7°C
Υγρασία: 93%
Βαρόμετρο: 1005 hPa
Περίληψη: Ασθενής βροχή
Clouds: Συννεφιά
Visibility: 5 km
Cloud details: Σχεδόν νεφελώδης 610 m
Συννεφιά 1829 m
2018/02/25 11:50 LGIO 251150Z /////KT 5000 -RA BKN020 OVC060 08/07 Q1005
LGBL - BOLOS - GREECE
Ενημερώθηκε: 25/02/2018 16:50
Drizzle, Συννεφιά
Drizzle, Συννεφιά
 Ανεμος από Α
Ανεμος: Α 22 km/h
Θερμοκρασία: 9°C
Wind Chill: 6°C
Σημ. Δρόσου: 7°C
Υγρασία: 87%
Βαρόμετρο: 1008 hPa
Περίληψη: Drizzle
Clouds: Συννεφιά
Visibility: 6 km
Cloud details: Μερικώς νεφελώδης 244 m
Σχεδόν νεφελώδης 762 m
Συννεφιά 2438 m
2018/02/25 14:50 LGBL 251450Z 09012KT 6000 DZ SCT008 BKN025 OVC080 09/07 Q1008
 
LGMT - MITILINI - GREECE
Ενημερώθηκε: 25/02/2018 16:50
Μερικώς νεφελώδης
Μερικώς νεφελώδης
 Ανεμος από ΑΝΑ
Ανεμος: ΑΝΑ 19 km/h
Θερμοκρασία: 11°C
Σημ. Δρόσου: 4°C
Υγρασία: 62%
Βαρόμετρο: 1010 hPa
Clouds: Μερικώς νεφελώδης
Visibility: 10 km
Cloud details: Μερικώς νεφελώδης 610 m
2018/02/25 14:50 LGMT 251450Z 12010KT 9999 SCT020 11/04 Q1010
LGAV - ATHENS - GREECE
Ενημερώθηκε: 25/02/2018 16:50
Συννεφιά
Συννεφιά
 Ανεμος από ΒΑ
Ανεμος: ΒΑ 9 km/h
Θερμοκρασία: 11°C
Σημ. Δρόσου: 6°C
Υγρασία: 72%
Βαρόμετρο: 1008 hPa
Clouds: Συννεφιά
Visibility: 10 km
Cloud details: Συννεφιά 762 m
2018/02/25 14:50 LGAV 251450Z 05005KT 9999 OVC025 11/06 Q1008 NOSIG
 
LGRP - RODOS - GREECE
Ενημερώθηκε: 25/02/2018 16:50
Μερικώς νεφελώδης
Μερικώς νεφελώδης
 Ανεμος από Δ
Ανεμος: Δ 19 km/h
Θερμοκρασία: 14°C
Σημ. Δρόσου: 7°C
Υγρασία: 63%
Βαρόμετρο: 1008 hPa
Clouds: Μερικώς νεφελώδης
Visibility: 10 km
Cloud details: Αραιές Νεφώσεις 305 m
Μερικώς νεφελώδης 549 m
2018/02/25 14:50 LGRP 251450Z 27010KT 9999 FEW010 SCT018 14/07 Q1008 NOSIG
LGIR - HRAKLIO/KRITI - GREECE
Ενημερώθηκε: 25/02/2018 16:50
Μερικώς νεφελώδης
Μερικώς νεφελώδης
 Ανεμος από ΒΒΑ
Ανεμος: ΒΒΑ 4 km/h
Θερμοκρασία: 15°C
Σημ. Δρόσου: 10°C
Υγρασία: 72%
Βαρόμετρο: 1008 hPa
Clouds: Μερικώς νεφελώδης
Visibility: 10 km
Cloud details: Μερικώς νεφελώδης 610 m
2018/02/25 14:50 LGIR 251450Z 02002KT 9999 SCT020 15/10 Q1008 NOSIG
 
LGMK - MIKONOS - GREECE
Ενημερώθηκε: 25/02/2018 16:50
Αραιές Νεφώσεις
Αραιές Νεφώσεις
 Ανεμος από Β
Ανεμος: Β 15 km/h
Θερμοκρασία: 11°C
Σημ. Δρόσου: 4°C
Υγρασία: 62%
Βαρόμετρο: 1007 hPa
Clouds: Αραιές Νεφώσεις
Visibility: 10 km
Cloud details: Αραιές Νεφώσεις 762 m
2018/02/25 14:50 LGMK 251450Z 01008KT 9999 FEW025 11/04 Q1007
LGKR - KERKIRA - GREECE
Ενημερώθηκε: 25/02/2018 16:50
Ασθενής βροχή, Συννεφιά
Ασθενής βροχή, Συννεφιά
 Ανεμος από ΝΑ
Ανεμος: ΝΑ 13 km/h
Θερμοκρασία: 11°C
Σημ. Δρόσου: 9°C
Υγρασία: 88%
Βαρόμετρο: 1005 hPa
Περίληψη: Ασθενής βροχή
Clouds: Συννεφιά
Visibility: 9 km
Cloud details: Μερικώς νεφελώδης 366 m
Σχεδόν νεφελώδης 762 m
Συννεφιά 2438 m
2018/02/25 14:50 LGKR 251450Z 14007KT 9000 -RA SCT012 BKN025 OVC080 11/09 Q1005 NOSIG